sensor_id;sensor_type;location;lat;lon;timestamp;P1;durP1;ratioP1;P2;durP2;ratioP2
49784;SDS011;35679;38.732;-121.358;2023-11-19T00:00:30;10.10;;;9.70;;
49784;SDS011;35679;38.732;-121.358;2023-11-19T00:03:19;10.35;;;9.95;;
49784;SDS011;35679;38.732;-121.358;2023-11-19T00:06:08;10.68;;;10.07;;
49784;SDS011;35679;38.732;-121.358;2023-11-19T00:08:59;8.05;;;7.75;;
49784;SDS011;35679;38.732;-121.358;2023-11-19T00:11:49;8.50;;;8.05;;
49784;SDS011;35679;38.732;-121.358;2023-11-19T00:14:41;8.40;;;8.00;;
49784;SDS011;35679;38.732;-121.358;2023-11-19T00:17:31;6.30;;;6.00;;
49784;SDS011;35679;38.732;-121.358;2023-11-19T00:20:20;7.00;;;6.60;;
49784;SDS011;35679;38.732;-121.358;2023-11-19T00:23:12;4.97;;;4.77;;
49784;SDS011;35679;38.732;-121.358;2023-11-19T00:26:03;3.80;;;3.60;;
49784;SDS011;35679;38.732;-121.358;2023-11-19T00:28:56;4.05;;;3.75;;
49784;SDS011;35679;38.732;-121.358;2023-11-19T00:31:46;4.18;;;3.88;;
49784;SDS011;35679;38.732;-121.358;2023-11-19T00:34:36;3.80;;;3.60;;
49784;SDS011;35679;38.732;-121.358;2023-11-19T00:37:25;3.30;;;3.20;;
49784;SDS011;35679;38.732;-121.358;2023-11-19T00:40:15;4.00;;;3.80;;
49784;SDS011;35679;38.732;-121.358;2023-11-19T00:43:06;3.88;;;3.67;;
49784;SDS011;35679;38.732;-121.358;2023-11-19T00:45:56;3.88;;;3.67;;
49784;SDS011;35679;38.732;-121.358;2023-11-19T00:48:45;2.80;;;2.70;;
49784;SDS011;35679;38.732;-121.358;2023-11-19T00:51:35;3.20;;;3.10;;
49784;SDS011;35679;38.732;-121.358;2023-11-19T00:54:25;3.10;;;3.00;;
49784;SDS011;35679;38.732;-121.358;2023-11-19T00:57:14;3.47;;;3.20;;
49784;SDS011;35679;38.732;-121.358;2023-11-19T01:00:07;3.42;;;3.22;;
49784;SDS011;35679;38.732;-121.358;2023-11-19T01:03:07;3.50;;;3.30;;
49784;SDS011;35679;38.732;-121.358;2023-11-19T01:05:57;3.33;;;3.15;;
49784;SDS011;35679;38.732;-121.358;2023-11-19T01:08:48;3.83;;;3.55;;
49784;SDS011;35679;38.732;-121.358;2023-11-19T01:11:37;3.83;;;3.63;;
49784;SDS011;35679;38.732;-121.358;2023-11-19T01:14:27;3.63;;;3.20;;
49784;SDS011;35679;38.732;-121.358;2023-11-19T01:17:17;3.70;;;3.60;;
49784;SDS011;35679;38.732;-121.358;2023-11-19T01:20:06;3.92;;;3.72;;
49784;SDS011;35679;38.732;-121.358;2023-11-19T01:23:00;4.13;;;3.70;;
49784;SDS011;35679;38.732;-121.358;2023-11-19T01:25:49;4.80;;;4.60;;
49784;SDS011;35679;38.732;-121.358;2023-11-19T01:28:39;4.70;;;4.50;;
49784;SDS011;35679;38.732;-121.358;2023-11-19T01:31:34;5.43;;;5.18;;
49784;SDS011;35679;38.732;-121.358;2023-11-19T01:34:23;4.80;;;4.53;;
49784;SDS011;35679;38.732;-121.358;2023-11-19T01:37:13;4.90;;;4.60;;
49784;SDS011;35679;38.732;-121.358;2023-11-19T01:40:03;4.72;;;4.53;;
49784;SDS011;35679;38.732;-121.358;2023-11-19T01:42:54;4.50;;;4.30;;
49784;SDS011;35679;38.732;-121.358;2023-11-19T01:45:43;4.55;;;4.35;;
49784;SDS011;35679;38.732;-121.358;2023-11-19T01:48:33;4.60;;;4.40;;
49784;SDS011;35679;38.732;-121.358;2023-11-19T01:51:27;4.40;;;4.20;;
49784;SDS011;35679;38.732;-121.358;2023-11-19T01:54:17;5.00;;;4.63;;
49784;SDS011;35679;38.732;-121.358;2023-11-19T01:57:07;4.50;;;4.30;;
49784;SDS011;35679;38.732;-121.358;2023-11-19T01:59:58;4.03;;;3.83;;
49784;SDS011;35679;38.732;-121.358;2023-11-19T02:02:48;3.72;;;3.53;;
49784;SDS011;35679;38.732;-121.358;2023-11-19T02:05:38;3.55;;;3.45;;
49784;SDS011;35679;38.732;-121.358;2023-11-19T02:08:29;3.85;;;3.55;;
49784;SDS011;35679;38.732;-121.358;2023-11-19T02:11:21;4.28;;;4.05;;
49784;SDS011;35679;38.732;-121.358;2023-11-19T02:14:11;7.40;;;6.90;;
49784;SDS011;35679;38.732;-121.358;2023-11-19T02:17:00;7.60;;;7.10;;
49784;SDS011;35679;38.732;-121.358;2023-11-19T02:19:50;11.98;;;11.38;;
49784;SDS011;35679;38.732;-121.358;2023-11-19T02:22:40;12.30;;;11.60;;
49784;SDS011;35679;38.732;-121.358;2023-11-19T02:25:30;12.25;;;11.65;;
49784;SDS011;35679;38.732;-121.358;2023-11-19T02:28:21;13.23;;;12.60;;
49784;SDS011;35679;38.732;-121.358;2023-11-19T02:31:11;14.45;;;13.63;;
49784;SDS011;35679;38.732;-121.358;2023-11-19T02:34:01;11.43;;;10.80;;
49784;SDS011;35679;38.732;-121.358;2023-11-19T02:36:51;10.93;;;10.38;;
49784;SDS011;35679;38.732;-121.358;2023-11-19T02:39:42;13.05;;;12.40;;
49784;SDS011;35679;38.732;-121.358;2023-11-19T02:42:31;13.23;;;12.60;;
49784;SDS011;35679;38.732;-121.358;2023-11-19T02:45:22;12.38;;;11.77;;
49784;SDS011;35679;38.732;-121.358;2023-11-19T02:48:12;9.90;;;9.40;;
49784;SDS011;35679;38.732;-121.358;2023-11-19T02:51:04;8.85;;;8.45;;
49784;SDS011;35679;38.732;-121.358;2023-11-19T02:53:58;9.85;;;9.25;;
49784;SDS011;35679;38.732;-121.358;2023-11-19T02:56:47;10.32;;;9.70;;
49784;SDS011;35679;38.732;-121.358;2023-11-19T02:59:43;8.60;;;8.05;;
49784;SDS011;35679;38.732;-121.358;2023-11-19T03:02:32;8.43;;;8.02;;
49784;SDS011;35679;38.732;-121.358;2023-11-19T03:05:22;9.82;;;9.20;;
49784;SDS011;35679;38.732;-121.358;2023-11-19T03:08:12;8.10;;;7.70;;
49784;SDS011;35679;38.732;-121.358;2023-11-19T03:11:10;11.13;;;10.55;;
49784;SDS011;35679;38.732;-121.358;2023-11-19T03:13:59;17.85;;;16.95;;
49784;SDS011;35679;38.732;-121.358;2023-11-19T03:16:49;15.90;;;15.10;;
49784;SDS011;35679;38.732;-121.358;2023-11-19T03:19:40;14.55;;;13.85;;
49784;SDS011;35679;38.732;-121.358;2023-11-19T03:22:29;21.50;;;20.40;;
49784;SDS011;35679;38.732;-121.358;2023-11-19T03:25:20;22.52;;;21.33;;
49784;SDS011;35679;38.732;-121.358;2023-11-19T03:28:09;17.60;;;16.70;;
49784;SDS011;35679;38.732;-121.358;2023-11-19T03:30:59;21.33;;;20.23;;
49784;SDS011;35679;38.732;-121.358;2023-11-19T03:33:49;37.88;;;35.97;;
49784;SDS011;35679;38.732;-121.358;2023-11-19T03:36:38;40.53;;;38.42;;
49784;SDS011;35679;38.732;-121.358;2023-11-19T03:39:30;40.63;;;38.42;;
49784;SDS011;35679;38.732;-121.358;2023-11-19T03:42:19;40.45;;;38.42;;
49784;SDS011;35679;38.732;-121.358;2023-11-19T03:45:09;39.92;;;37.92;;
49784;SDS011;35679;38.732;-121.358;2023-11-19T03:47:58;39.53;;;37.53;;
49784;SDS011;35679;38.732;-121.358;2023-11-19T03:50:48;39.17;;;37.17;;
49784;SDS011;35679;38.732;-121.358;2023-11-19T03:53:37;40.00;;;38.00;;
49784;SDS011;35679;38.732;-121.358;2023-11-19T03:56:26;40.03;;;37.92;;
49784;SDS011;35679;38.732;-121.358;2023-11-19T03:59:17;36.75;;;34.92;;
49784;SDS011;35679;38.732;-121.358;2023-11-19T04:02:09;36.22;;;34.33;;
49784;SDS011;35679;38.732;-121.358;2023-11-19T04:04:58;36.42;;;34.42;;
49784;SDS011;35679;38.732;-121.358;2023-11-19T04:07:48;35.70;;;33.75;;
49784;SDS011;35679;38.732;-121.358;2023-11-19T04:10:37;31.10;;;29.50;;
49784;SDS011;35679;38.732;-121.358;2023-11-19T04:13:27;31.88;;;30.17;;
49784;SDS011;35679;38.732;-121.358;2023-11-19T04:16:16;32.55;;;30.80;;
49784;SDS011;35679;38.732;-121.358;2023-11-19T04:19:06;33.70;;;31.90;;
49784;SDS011;35679;38.732;-121.358;2023-11-19T04:21:56;31.98;;;30.27;;
49784;SDS011;35679;38.732;-121.358;2023-11-19T04:24:45;31.10;;;29.50;;
49784;SDS011;35679;38.732;-121.358;2023-11-19T04:27:35;30.60;;;29.00;;
49784;SDS011;35679;38.732;-121.358;2023-11-19T04:30:25;30.88;;;29.27;;
49784;SDS011;35679;38.732;-121.358;2023-11-19T04:33:15;31.40;;;29.67;;
49784;SDS011;35679;38.732;-121.358;2023-11-19T04:36:04;32.28;;;30.48;;
49784;SDS011;35679;38.732;-121.358;2023-11-19T04:38:54;33.28;;;31.35;;
49784;SDS011;35679;38.732;-121.358;2023-11-19T04:41:48;32.50;;;30.77;;
49784;SDS011;35679;38.732;-121.358;2023-11-19T04:44:38;29.10;;;27.70;;
49784;SDS011;35679;38.732;-121.358;2023-11-19T04:47:27;29.80;;;28.30;;
49784;SDS011;35679;38.732;-121.358;2023-11-19T04:50:17;31.08;;;29.50;;
49784;SDS011;35679;38.732;-121.358;2023-11-19T04:53:06;29.77;;;27.98;;
49784;SDS011;35679;38.732;-121.358;2023-11-19T04:55:55;30.15;;;28.45;;
49784;SDS011;35679;38.732;-121.358;2023-11-19T04:58:45;34.70;;;32.60;;
49784;SDS011;35679;38.732;-121.358;2023-11-19T05:01:34;40.38;;;37.97;;
49784;SDS011;35679;38.732;-121.358;2023-11-19T05:04:24;40.53;;;38.03;;
49784;SDS011;35679;38.732;-121.358;2023-11-19T05:07:14;40.95;;;38.35;;
49784;SDS011;35679;38.732;-121.358;2023-11-19T05:10:04;41.97;;;39.47;;
49784;SDS011;35679;38.732;-121.358;2023-11-19T05:12:54;42.53;;;39.90;;
49784;SDS011;35679;38.732;-121.358;2023-11-19T05:15:44;42.42;;;39.90;;
49784;SDS011;35679;38.732;-121.358;2023-11-19T05:18:34;42.42;;;39.80;;
49784;SDS011;35679;38.732;-121.358;2023-11-19T05:21:23;36.20;;;33.90;;
49784;SDS011;35679;38.732;-121.358;2023-11-19T05:24:12;35.75;;;33.55;;
49784;SDS011;35679;38.732;-121.358;2023-11-19T05:27:02;34.20;;;32.00;;
49784;SDS011;35679;38.732;-121.358;2023-11-19T05:29:51;33.45;;;31.33;;
49784;SDS011;35679;38.732;-121.358;2023-11-19T05:32:41;35.75;;;33.45;;
49784;SDS011;35679;38.732;-121.358;2023-11-19T05:35:31;33.33;;;31.17;;
49784;SDS011;35679;38.732;-121.358;2023-11-19T05:38:21;36.00;;;33.70;;
49784;SDS011;35679;38.732;-121.358;2023-11-19T05:41:10;36.33;;;33.92;;
49784;SDS011;35679;38.732;-121.358;2023-11-19T05:43:59;36.65;;;34.35;;
49784;SDS011;35679;38.732;-121.358;2023-11-19T05:46:49;36.08;;;33.78;;
49784;SDS011;35679;38.732;-121.358;2023-11-19T05:49:38;36.25;;;33.95;;
49784;SDS011;35679;38.732;-121.358;2023-11-19T05:52:27;36.33;;;33.97;;
49784;SDS011;35679;38.732;-121.358;2023-11-19T05:55:21;36.28;;;33.97;;
49784;SDS011;35679;38.732;-121.358;2023-11-19T05:58:13;36.00;;;33.70;;
49784;SDS011;35679;38.732;-121.358;2023-11-19T06:01:02;35.88;;;33.58;;
49784;SDS011;35679;38.732;-121.358;2023-11-19T06:03:56;35.83;;;33.63;;
49784;SDS011;35679;38.732;-121.358;2023-11-19T06:06:45;35.45;;;33.28;;
49784;SDS011;35679;38.732;-121.358;2023-11-19T06:09:35;35.38;;;33.17;;
49784;SDS011;35679;38.732;-121.358;2023-11-19T06:12:24;35.70;;;33.50;;
49784;SDS011;35679;38.732;-121.358;2023-11-19T06:15:16;36.50;;;34.20;;
49784;SDS011;35679;38.732;-121.358;2023-11-19T06:18:05;36.25;;;34.03;;
49784;SDS011;35679;38.732;-121.358;2023-11-19T06:20:54;36.08;;;33.88;;
49784;SDS011;35679;38.732;-121.358;2023-11-19T06:23:43;36.13;;;33.72;;
49784;SDS011;35679;38.732;-121.358;2023-11-19T06:26:33;36.13;;;33.75;;
49784;SDS011;35679;38.732;-121.358;2023-11-19T06:29:22;36.03;;;33.72;;
49784;SDS011;35679;38.732;-121.358;2023-11-19T06:32:12;36.30;;;33.90;;
49784;SDS011;35679;38.732;-121.358;2023-11-19T06:35:01;39.08;;;36.78;;
49784;SDS011;35679;38.732;-121.358;2023-11-19T06:37:53;39.47;;;36.90;;
49784;SDS011;35679;38.732;-121.358;2023-11-19T06:40:43;39.55;;;37.15;;
49784;SDS011;35679;38.732;-121.358;2023-11-19T06:43:32;40.08;;;37.67;;
49784;SDS011;35679;38.732;-121.358;2023-11-19T06:46:24;39.20;;;36.90;;
49784;SDS011;35679;38.732;-121.358;2023-11-19T06:49:14;39.63;;;37.13;;
49784;SDS011;35679;38.732;-121.358;2023-11-19T06:52:04;39.95;;;37.55;;
49784;SDS011;35679;38.732;-121.358;2023-11-19T06:54:53;39.97;;;37.38;;
49784;SDS011;35679;38.732;-121.358;2023-11-19T06:57:55;40.20;;;37.60;;
49784;SDS011;35679;38.732;-121.358;2023-11-19T07:00:44;39.47;;;37.17;;
49784;SDS011;35679;38.732;-121.358;2023-11-19T07:03:35;39.22;;;36.85;;
49784;SDS011;35679;38.732;-121.358;2023-11-19T07:06:25;39.40;;;37.00;;
49784;SDS011;35679;38.732;-121.358;2023-11-19T07:09:17;39.17;;;36.78;;
49784;SDS011;35679;38.732;-121.358;2023-11-19T07:12:07;39.10;;;36.67;;
49784;SDS011;35679;38.732;-121.358;2023-11-19T07:14:56;39.25;;;36.85;;
49784;SDS011;35679;38.732;-121.358;2023-11-19T07:17:45;38.75;;;36.45;;
49784;SDS011;35679;38.732;-121.358;2023-11-19T07:20:49;39.97;;;37.38;;
49784;SDS011;35679;38.732;-121.358;2023-11-19T07:23:38;39.55;;;37.15;;
49784;SDS011;35679;38.732;-121.358;2023-11-19T07:26:27;40.00;;;37.33;;
49784;SDS011;35679;38.732;-121.358;2023-11-19T07:29:17;40.22;;;37.72;;
49784;SDS011;35679;38.732;-121.358;2023-11-19T07:32:09;39.88;;;37.30;;
49784;SDS011;35679;38.732;-121.358;2023-11-19T07:34:58;39.20;;;36.90;;
49784;SDS011;35679;38.732;-121.358;2023-11-19T07:37:48;39.78;;;37.28;;
49784;SDS011;35679;38.732;-121.358;2023-11-19T07:40:38;40.53;;;37.95;;
49784;SDS011;35679;38.732;-121.358;2023-11-19T07:43:45;40.08;;;37.58;;
49784;SDS011;35679;38.732;-121.358;2023-11-19T07:46:35;39.55;;;37.05;;
49784;SDS011;35679;38.732;-121.358;2023-11-19T07:49:24;3.25;;;3.15;;
49784;SDS011;35679;38.732;-121.358;2023-11-19T07:52:13;3.70;;;3.40;;
49784;SDS011;35679;38.732;-121.358;2023-11-19T07:55:05;3.83;;;3.60;;
49784;SDS011;35679;38.732;-121.358;2023-11-19T07:57:55;3.78;;;3.58;;
49784;SDS011;35679;38.732;-121.358;2023-11-19T08:00:44;3.17;;;3.08;;
49784;SDS011;35679;38.732;-121.358;2023-11-19T08:03:34;3.90;;;3.67;;
49784;SDS011;35679;38.732;-121.358;2023-11-19T08:06:23;3.20;;;3.00;;
49784;SDS011;35679;38.732;-121.358;2023-11-19T08:09:13;4.72;;;3.85;;
49784;SDS011;35679;38.732;-121.358;2023-11-19T08:12:04;3.97;;;3.78;;
49784;SDS011;35679;38.732;-121.358;2023-11-19T08:14:57;3.40;;;3.20;;
49784;SDS011;35679;38.732;-121.358;2023-11-19T08:17:46;3.10;;;2.90;;
49784;SDS011;35679;38.732;-121.358;2023-11-19T08:20:36;2.72;;;2.30;;
49784;SDS011;35679;38.732;-121.358;2023-11-19T08:23:25;2.30;;;2.20;;
49784;SDS011;35679;38.732;-121.358;2023-11-19T08:26:17;3.70;;;2.33;;
49784;SDS011;35679;38.732;-121.358;2023-11-19T08:29:08;2.63;;;2.17;;
49784;SDS011;35679;38.732;-121.358;2023-11-19T08:31:58;3.17;;;2.20;;
49784;SDS011;35679;38.732;-121.358;2023-11-19T08:34:50;2.30;;;2.15;;
49784;SDS011;35679;38.732;-121.358;2023-11-19T08:37:39;4.60;;;4.20;;
49784;SDS011;35679;38.732;-121.358;2023-11-19T08:40:29;3.92;;;3.65;;
49784;SDS011;35679;38.732;-121.358;2023-11-19T08:43:18;2.30;;;2.10;;
49784;SDS011;35679;38.732;-121.358;2023-11-19T08:46:11;3.42;;;3.22;;
49784;SDS011;35679;38.732;-121.358;2023-11-19T08:51:50;4.03;;;3.63;;
49784;SDS011;35679;38.732;-121.358;2023-11-19T08:54:42;3.33;;;2.00;;
49784;SDS011;35679;38.732;-121.358;2023-11-19T08:57:31;4.97;;;2.60;;
49784;SDS011;35679;38.732;-121.358;2023-11-19T09:00:21;2.67;;;2.50;;
49784;SDS011;35679;38.732;-121.358;2023-11-19T09:03:10;2.40;;;2.10;;
49784;SDS011;35679;38.732;-121.358;2023-11-19T09:06:00;2.08;;;1.90;;
49784;SDS011;35679;38.732;-121.358;2023-11-19T09:08:50;2.70;;;2.00;;
49784;SDS011;35679;38.732;-121.358;2023-11-19T09:11:39;3.15;;;2.30;;
49784;SDS011;35679;38.732;-121.358;2023-11-19T09:14:29;2.00;;;1.80;;
49784;SDS011;35679;38.732;-121.358;2023-11-19T09:17:19;3.08;;;1.90;;
49784;SDS011;35679;38.732;-121.358;2023-11-19T09:20:08;2.38;;;1.98;;
49784;SDS011;35679;38.732;-121.358;2023-11-19T09:23:00;2.17;;;1.90;;
49784;SDS011;35679;38.732;-121.358;2023-11-19T09:25:50;2.67;;;2.05;;
49784;SDS011;35679;38.732;-121.358;2023-11-19T09:28:39;1.77;;;1.70;;
49784;SDS011;35679;38.732;-121.358;2023-11-19T09:31:28;3.35;;;2.10;;
49784;SDS011;35679;38.732;-121.358;2023-11-19T09:34:18;2.08;;;1.98;;
49784;SDS011;35679;38.732;-121.358;2023-11-19T09:37:07;1.98;;;1.85;;
49784;SDS011;35679;38.732;-121.358;2023-11-19T09:39:59;2.45;;;2.15;;
49784;SDS011;35679;38.732;-121.358;2023-11-19T09:42:49;2.80;;;2.10;;
49784;SDS011;35679;38.732;-121.358;2023-11-19T09:45:48;2.00;;;1.80;;
49784;SDS011;35679;38.732;-121.358;2023-11-19T09:48:38;2.45;;;1.75;;
49784;SDS011;35679;38.732;-121.358;2023-11-19T09:51:30;1.77;;;1.67;;
49784;SDS011;35679;38.732;-121.358;2023-11-19T09:54:19;2.45;;;1.80;;
49784;SDS011;35679;38.732;-121.358;2023-11-19T09:57:09;2.08;;;1.98;;
49784;SDS011;35679;38.732;-121.358;2023-11-19T10:00:01;2.58;;;1.90;;
49784;SDS011;35679;38.732;-121.358;2023-11-19T10:02:52;2.33;;;2.00;;
49784;SDS011;35679;38.732;-121.358;2023-11-19T10:05:43;2.00;;;1.90;;
49784;SDS011;35679;38.732;-121.358;2023-11-19T10:08:33;1.88;;;1.77;;
49784;SDS011;35679;38.732;-121.358;2023-11-19T10:11:23;2.28;;;2.00;;
49784;SDS011;35679;38.732;-121.358;2023-11-19T10:14:13;1.95;;;1.77;;
49784;SDS011;35679;38.732;-121.358;2023-11-19T10:17:03;2.22;;;2.00;;
49784;SDS011;35679;38.732;-121.358;2023-11-19T10:19:53;2.25;;;1.90;;
49784;SDS011;35679;38.732;-121.358;2023-11-19T10:22:42;2.60;;;1.80;;
49784;SDS011;35679;38.732;-121.358;2023-11-19T10:25:33;2.83;;;2.00;;
49784;SDS011;35679;38.732;-121.358;2023-11-19T10:28:22;2.22;;;1.98;;
49784;SDS011;35679;38.732;-121.358;2023-11-19T10:31:14;3.75;;;2.00;;
49784;SDS011;35679;38.732;-121.358;2023-11-19T10:34:04;1.92;;;1.83;;
49784;SDS011;35679;38.732;-121.358;2023-11-19T10:37:29;2.05;;;1.95;;
49784;SDS011;35679;38.732;-121.358;2023-11-19T10:40:20;2.72;;;1.95;;
49784;SDS011;35679;38.732;-121.358;2023-11-19T10:43:10;2.00;;;1.80;;
49784;SDS011;35679;38.732;-121.358;2023-11-19T10:46:09;2.35;;;1.90;;
49784;SDS011;35679;38.732;-121.358;2023-11-19T10:49:00;1.83;;;1.70;;
49784;SDS011;35679;38.732;-121.358;2023-11-19T10:51:49;2.42;;;1.90;;
49784;SDS011;35679;38.732;-121.358;2023-11-19T10:54:40;2.15;;;1.98;;
49784;SDS011;35679;38.732;-121.358;2023-11-19T10:57:33;2.30;;;1.92;;
49784;SDS011;35679;38.732;-121.358;2023-11-19T11:03:31;2.15;;;1.98;;
49784;SDS011;35679;38.732;-121.358;2023-11-19T11:06:28;2.65;;;1.80;;
49784;SDS011;35679;38.732;-121.358;2023-11-19T11:09:19;2.28;;;2.00;;
49784;SDS011;35679;38.732;-121.358;2023-11-19T11:12:10;2.10;;;1.90;;
49784;SDS011;35679;38.732;-121.358;2023-11-19T11:15:01;2.25;;;2.05;;
49784;SDS011;35679;38.732;-121.358;2023-11-19T11:17:55;2.38;;;2.20;;
49784;SDS011;35679;38.732;-121.358;2023-11-19T11:20:50;2.00;;;1.90;;
49784;SDS011;35679;38.732;-121.358;2023-11-19T11:24:01;2.17;;;1.95;;
49784;SDS011;35679;38.732;-121.358;2023-11-19T11:30:40;2.17;;;2.05;;
49784;SDS011;35679;38.732;-121.358;2023-11-19T11:39:57;2.60;;;2.10;;
49784;SDS011;35679;38.732;-121.358;2023-11-19T11:42:49;4.35;;;2.45;;
49784;SDS011;35679;38.732;-121.358;2023-11-19T11:45:42;1.95;;;1.85;;
49784;SDS011;35679;38.732;-121.358;2023-11-19T11:48:34;2.30;;;2.10;;
49784;SDS011;35679;38.732;-121.358;2023-11-19T11:54:33;3.15;;;2.60;;
49784;SDS011;35679;38.732;-121.358;2023-11-19T11:57:23;1.80;;;1.70;;
49784;SDS011;35679;38.732;-121.358;2023-11-19T12:00:27;1.93;;;1.80;;
49784;SDS011;35679;38.732;-121.358;2023-11-19T12:03:18;2.60;;;1.92;;
49784;SDS011;35679;38.732;-121.358;2023-11-19T12:06:10;2.92;;;2.13;;
49784;SDS011;35679;38.732;-121.358;2023-11-19T12:09:00;2.10;;;2.00;;
49784;SDS011;35679;38.732;-121.358;2023-11-19T12:11:50;2.58;;;2.08;;
49784;SDS011;35679;38.732;-121.358;2023-11-19T12:15:01;2.30;;;2.10;;
49784;SDS011;35679;38.732;-121.358;2023-11-19T12:17:54;3.80;;;2.10;;
49784;SDS011;35679;38.732;-121.358;2023-11-19T12:20:44;2.35;;;2.10;;
49784;SDS011;35679;38.732;-121.358;2023-11-19T12:23:33;2.80;;;2.05;;
49784;SDS011;35679;38.732;-121.358;2023-11-19T12:26:36;2.35;;;2.15;;
49784;SDS011;35679;38.732;-121.358;2023-11-19T12:29:27;2.92;;;2.17;;
49784;SDS011;35679;38.732;-121.358;2023-11-19T12:32:16;2.00;;;1.90;;
49784;SDS011;35679;38.732;-121.358;2023-11-19T12:35:06;2.10;;;2.00;;
49784;SDS011;35679;38.732;-121.358;2023-11-19T12:37:59;2.10;;;2.00;;
49784;SDS011;35679;38.732;-121.358;2023-11-19T12:41:08;2.72;;;2.08;;
49784;SDS011;35679;38.732;-121.358;2023-11-19T12:44:09;2.83;;;2.03;;
49784;SDS011;35679;38.732;-121.358;2023-11-19T12:47:01;2.25;;;2.05;;
49784;SDS011;35679;38.732;-121.358;2023-11-19T12:49:58;2.33;;;2.08;;
49784;SDS011;35679;38.732;-121.358;2023-11-19T12:52:57;2.72;;;1.88;;
49784;SDS011;35679;38.732;-121.358;2023-11-19T12:55:47;2.72;;;2.33;;
49784;SDS011;35679;38.732;-121.358;2023-11-19T12:58:36;2.70;;;2.50;;
49784;SDS011;35679;38.732;-121.358;2023-11-19T13:01:27;2.25;;;2.05;;
49784;SDS011;35679;38.732;-121.358;2023-11-19T13:04:18;4.28;;;2.20;;
49784;SDS011;35679;38.732;-121.358;2023-11-19T13:07:08;2.75;;;2.25;;
49784;SDS011;35679;38.732;-121.358;2023-11-19T13:10:01;2.65;;;2.15;;
49784;SDS011;35679;38.732;-121.358;2023-11-19T13:13:01;2.22;;;2.00;;
49784;SDS011;35679;38.732;-121.358;2023-11-19T13:15:52;2.80;;;2.38;;
49784;SDS011;35679;38.732;-121.358;2023-11-19T13:18:42;4.75;;;2.10;;
49784;SDS011;35679;38.732;-121.358;2023-11-19T13:21:31;3.38;;;2.10;;
49784;SDS011;35679;38.732;-121.358;2023-11-19T13:24:21;4.03;;;2.05;;
49784;SDS011;35679;38.732;-121.358;2023-11-19T13:27:10;2.30;;;2.10;;
49784;SDS011;35679;38.732;-121.358;2023-11-19T13:30:00;2.88;;;2.17;;
49784;SDS011;35679;38.732;-121.358;2023-11-19T13:33:14;2.70;;;2.17;;
49784;SDS011;35679;38.732;-121.358;2023-11-19T13:36:04;2.00;;;1.80;;
49784;SDS011;35679;38.732;-121.358;2023-11-19T13:39:00;4.22;;;2.42;;
49784;SDS011;35679;38.732;-121.358;2023-11-19T13:41:52;4.10;;;2.10;;
49784;SDS011;35679;38.732;-121.358;2023-11-19T13:45:00;6.13;;;2.22;;
49784;SDS011;35679;38.732;-121.358;2023-11-19T13:47:49;2.85;;;1.98;;
49784;SDS011;35679;38.732;-121.358;2023-11-19T13:50:40;5.70;;;2.28;;
49784;SDS011;35679;38.732;-121.358;2023-11-19T13:53:30;2.88;;;2.13;;
49784;SDS011;35679;38.732;-121.358;2023-11-19T13:56:38;3.08;;;2.40;;
49784;SDS011;35679;38.732;-121.358;2023-11-19T13:59:27;4.30;;;2.08;;
49784;SDS011;35679;38.732;-121.358;2023-11-19T14:02:17;2.20;;;2.00;;
49784;SDS011;35679;38.732;-121.358;2023-11-19T14:05:07;3.95;;;2.10;;
49784;SDS011;35679;38.732;-121.358;2023-11-19T14:07:57;2.97;;;2.20;;
49784;SDS011;35679;38.732;-121.358;2023-11-19T14:10:46;3.08;;;1.90;;
49784;SDS011;35679;38.732;-121.358;2023-11-19T14:13:36;2.90;;;2.00;;
49784;SDS011;35679;38.732;-121.358;2023-11-19T14:16:26;2.55;;;2.10;;
49784;SDS011;35679;38.732;-121.358;2023-11-19T14:19:16;4.32;;;2.40;;
49784;SDS011;35679;38.732;-121.358;2023-11-19T14:22:05;3.30;;;2.00;;
49784;SDS011;35679;38.732;-121.358;2023-11-19T14:24:55;2.55;;;2.35;;
49784;SDS011;35679;38.732;-121.358;2023-11-19T14:27:45;2.10;;;1.95;;
49784;SDS011;35679;38.732;-121.358;2023-11-19T14:30:34;2.97;;;2.00;;
49784;SDS011;35679;38.732;-121.358;2023-11-19T14:33:24;6.50;;;2.10;;
49784;SDS011;35679;38.732;-121.358;2023-11-19T14:36:14;2.78;;;2.05;;
49784;SDS011;35679;38.732;-121.358;2023-11-19T14:39:04;4.38;;;2.20;;
49784;SDS011;35679;38.732;-121.358;2023-11-19T14:41:55;1.90;;;1.80;;
49784;SDS011;35679;38.732;-121.358;2023-11-19T14:44:49;4.30;;;1.95;;
49784;SDS011;35679;38.732;-121.358;2023-11-19T14:47:39;2.83;;;2.00;;
49784;SDS011;35679;38.732;-121.358;2023-11-19T14:50:29;2.15;;;1.95;;
49784;SDS011;35679;38.732;-121.358;2023-11-19T14:53:18;6.20;;;2.20;;
49784;SDS011;35679;38.732;-121.358;2023-11-19T14:56:11;5.70;;;2.17;;
49784;SDS011;35679;38.732;-121.358;2023-11-19T15:01:50;4.75;;;1.98;;
49784;SDS011;35679;38.732;-121.358;2023-11-19T15:04:40;4.75;;;2.90;;
49784;SDS011;35679;38.732;-121.358;2023-11-19T15:07:32;3.60;;;2.45;;
49784;SDS011;35679;38.732;-121.358;2023-11-19T15:10:24;2.40;;;2.20;;
49784;SDS011;35679;38.732;-121.358;2023-11-19T15:13:14;5.18;;;2.40;;
49784;SDS011;35679;38.732;-121.358;2023-11-19T15:16:03;2.60;;;2.40;;
49784;SDS011;35679;38.732;-121.358;2023-11-19T15:19:00;3.58;;;2.15;;
49784;SDS011;35679;38.732;-121.358;2023-11-19T15:21:52;2.93;;;2.37;;
49784;SDS011;35679;38.732;-121.358;2023-11-19T15:24:43;4.28;;;2.15;;
49784;SDS011;35679;38.732;-121.358;2023-11-19T15:27:33;3.13;;;2.50;;
49784;SDS011;35679;38.732;-121.358;2023-11-19T15:30:22;2.20;;;2.00;;
49784;SDS011;35679;38.732;-121.358;2023-11-19T15:33:13;3.47;;;2.42;;
49784;SDS011;35679;38.732;-121.358;2023-11-19T15:36:03;5.07;;;4.78;;
49784;SDS011;35679;38.732;-121.358;2023-11-19T15:38:56;4.90;;;4.55;;
49784;SDS011;35679;38.732;-121.358;2023-11-19T15:41:45;5.60;;;5.20;;
49784;SDS011;35679;38.732;-121.358;2023-11-19T15:44:35;5.07;;;4.68;;
49784;SDS011;35679;38.732;-121.358;2023-11-19T15:47:25;5.40;;;4.35;;
49784;SDS011;35679;38.732;-121.358;2023-11-19T15:50:14;4.13;;;3.72;;
49784;SDS011;35679;38.732;-121.358;2023-11-19T15:53:04;3.65;;;3.35;;
49784;SDS011;35679;38.732;-121.358;2023-11-19T15:55:54;4.00;;;3.53;;
49784;SDS011;35679;38.732;-121.358;2023-11-19T15:58:43;4.25;;;4.00;;
49784;SDS011;35679;38.732;-121.358;2023-11-19T16:01:33;5.78;;;5.30;;
49784;SDS011;35679;38.732;-121.358;2023-11-19T16:04:23;3.25;;;2.90;;
49784;SDS011;35679;38.732;-121.358;2023-11-19T16:07:14;2.67;;;2.47;;
49784;SDS011;35679;38.732;-121.358;2023-11-19T16:10:03;3.40;;;2.10;;
49784;SDS011;35679;38.732;-121.358;2023-11-19T16:12:53;4.63;;;2.25;;
49784;SDS011;35679;38.732;-121.358;2023-11-19T16:15:42;2.95;;;2.55;;
49784;SDS011;35679;38.732;-121.358;2023-11-19T16:18:32;2.95;;;2.20;;
49784;SDS011;35679;38.732;-121.358;2023-11-19T16:21:21;2.60;;;2.40;;
49784;SDS011;35679;38.732;-121.358;2023-11-19T16:24:13;3.50;;;2.38;;
49784;SDS011;35679;38.732;-121.358;2023-11-19T16:27:03;2.72;;;2.53;;
49784;SDS011;35679;38.732;-121.358;2023-11-19T16:29:53;2.60;;;2.40;;
49784;SDS011;35679;38.732;-121.358;2023-11-19T16:35:42;2.70;;;2.10;;
49784;SDS011;35679;38.732;-121.358;2023-11-19T16:38:31;2.85;;;2.30;;
49784;SDS011;35679;38.732;-121.358;2023-11-19T16:41:21;2.17;;;2.08;;